Time;durP1;ratioP1;P1;durP2;ratioP2;P2;SDS_P1;SDS_P2;PMS_P1;PMS_P2;Temp;Humidity;BMP_temperature;BMP_pressure;BME280_temperature;BME280_humidity;BME280_pressure;Samples;Min_cycle;Max_cycle;Signal;HPM_P1;HPM_P2
2022/11/07 00:08:52;;;;;;;9.27;4.38;;;;;;;;;;21170881;28;20087;-57
2022/11/07 00:18:54;;;;;;;9.65;4.65;;;;;;;;;;21170588;28;20052;-55
2022/11/07 00:28:56;;;;;;;6.97;4.00;;;;;;;;;;21170193;28;20051;-56
2022/11/07 00:38:59;;;;;;;6.53;4.03;;;;;;;;;;21169399;28;20480;-57
2022/11/07 00:49:01;;;;;;;7.55;3.63;;;;;;;;;;21167892;28;20408;-56
2022/11/07 00:59:03;;;;;;;7.05;3.95;;;;;;;;;;21168208;28;20476;-56
2022/11/07 01:09:07;;;;;;;8.07;4.90;;;;;;;;;;21167357;28;20454;-56
2022/11/07 01:19:09;;;;;;;7.57;4.38;;;;;;;;;;21165386;28;20123;-56
2022/11/07 01:29:11;;;;;;;8.07;4.40;;;;;;;;;;21145175;28;20050;-56
2022/11/07 01:39:13;;;;;;;9.25;4.82;;;;;;;;;;21164644;28;20047;-57
2022/11/07 01:49:27;;;;;;;8.10;5.20;;;;;;;;;;21163016;28;20095;-56
2022/11/07 01:59:31;;;;;;;7.20;4.85;;;;;;;;;;21163017;28;20055;-57
2022/11/07 02:09:33;;;;;;;7.10;4.75;;;;;;;;;;21163248;28;20048;-57
2022/11/07 02:19:36;;;;;;;7.90;4.90;;;;;;;;;;21161635;28;20134;-57
2022/11/07 02:29:41;;;;;;;6.33;4.73;;;;;;;;;;21161554;28;20051;-57
2022/11/07 02:39:45;;;;;;;8.40;5.35;;;;;;;;;;21166131;28;20052;-58
2022/11/07 02:49:50;;;;;;;8.32;5.07;;;;;;;;;;21176753;28;20490;-57
2022/11/07 02:59:54;;;;;;;7.20;4.97;;;;;;;;;;21176525;28;20534;-57
2022/11/07 03:10:01;;;;;;;8.55;5.28;;;;;;;;;;21175429;28;20048;-57
2022/11/07 03:20:05;;;;;;;12.60;6.13;;;;;;;;;;21174452;28;20051;-57
2022/11/07 03:30:09;;;;;;;7.18;5.32;;;;;;;;;;21173887;28;20048;-56
2022/11/07 03:40:13;;;;;;;7.80;5.07;;;;;;;;;;21174377;28;20051;-57
2022/11/07 03:50:17;;;;;;;7.65;4.90;;;;;;;;;;21171946;28;20056;-58
2022/11/07 04:00:26;;;;;;;12.07;6.32;;;;;;;;;;21172346;28;20043;-57
2022/11/07 04:10:47;;;;;;;7.47;4.90;;;;;;;;;;21171894;28;20104;-58
2022/11/07 04:20:53;;;;;;;6.20;4.78;;;;;;;;;;21170697;28;20090;-57
2022/11/07 04:30:59;;;;;;;6.70;5.22;;;;;;;;;;21171014;28;20472;-57
2022/11/07 04:41:04;;;;;;;7.93;4.80;;;;;;;;;;21169461;28;20043;-58
2022/11/07 04:51:12;;;;;;;7.75;5.90;;;;;;;;;;21168216;28;20139;-57
2022/11/07 05:01:15;;;;;;;12.25;6.10;;;;;;;;;;21167354;28;20047;-58
2022/11/07 05:11:17;;;;;;;10.07;5.82;;;;;;;;;;21167520;28;20052;-57
2022/11/07 05:21:20;;;;;;;10.27;6.53;;;;;;;;;;21166826;28;20096;-57
2022/11/07 05:31:23;;;;;;;7.65;5.45;;;;;;;;;;21166167;28;20453;-57
2022/11/07 05:41:25;;;;;;;7.38;5.50;;;;;;;;;;21164689;28;20126;-58
2022/11/07 05:51:27;;;;;;;11.68;5.72;;;;;;;;;;21164554;28;20501;-58
2022/11/07 06:01:30;;;;;;;8.45;5.13;;;;;;;;;;21164206;28;20044;-56
2022/11/07 06:11:33;;;;;;;7.35;5.60;;;;;;;;;;21163758;28;20052;-56
2022/11/07 06:21:35;;;;;;;6.93;5.13;;;;;;;;;;21191978;28;20043;-56
2022/11/07 06:31:37;;;;;;;7.57;5.82;;;;;;;;;;21190870;28;20051;-56
2022/11/07 06:41:38;;;;;;;7.85;6.10;;;;;;;;;;21190321;28;20043;-56
2022/11/07 06:51:41;;;;;;;9.20;6.22;;;;;;;;;;21190122;28;20086;-58
2022/11/07 07:01:42;;;;;;;9.68;6.70;;;;;;;;;;21190119;28;20048;-58
2022/11/07 07:11:44;;;;;;;9.70;6.70;;;;;;;;;;21190452;28;20464;-57
2022/11/07 07:21:46;;;;;;;11.07;7.82;;;;;;;;;;21171099;28;20472;-56
2022/11/07 07:31:48;;;;;;;12.02;7.15;;;;;;;;;;21175846;28;20138;-56
2022/11/07 07:41:50;;;;;;;11.43;6.72;;;;;;;;;;21174909;28;20071;-56
2022/11/07 07:51:52;;;;;;;13.20;7.88;;;;;;;;;;21173468;28;20048;-55
2022/11/07 08:01:53;;;;;;;12.68;6.75;;;;;;;;;;21172690;28;20051;-56
2022/11/07 08:11:55;;;;;;;14.18;7.07;;;;;;;;;;21171181;28;20090;-55
2022/11/07 08:21:57;;;;;;;10.55;7.05;;;;;;;;;;21171329;28;20472;-57
2022/11/07 08:31:59;;;;;;;12.60;7.47;;;;;;;;;;21170809;28;20097;-56
2022/11/07 08:42:01;;;;;;;17.40;8.57;;;;;;;;;;21168603;28;20116;-56
2022/11/07 08:52:03;;;;;;;15.73;8.40;;;;;;;;;;21166495;28;20137;-57
2022/11/07 09:02:05;;;;;;;13.10;7.70;;;;;;;;;;21167013;28;20063;-57
2022/11/07 09:12:07;;;;;;;15.25;7.30;;;;;;;;;;21166079;28;20048;-58
2022/11/07 09:22:10;;;;;;;16.50;7.32;;;;;;;;;;21165362;28;20051;-58
2022/11/07 09:32:13;;;;;;;11.43;6.40;;;;;;;;;;21165601;28;20396;-55
2022/11/07 09:42:27;;;;;;;13.68;6.15;;;;;;;;;;21163244;28;20040;-56
2022/11/07 09:52:47;;;;;;;12.15;7.47;;;;;;;;;;21161352;28;20059;-56
2022/11/07 10:02:54;;;;;;;17.55;8.20;;;;;;;;;;21162323;28;20132;-58
2022/11/07 10:13:14;;;;;;;19.00;7.85;;;;;;;;;;21161849;28;20062;-57
2022/11/07 10:23:19;;;;;;;11.82;6.72;;;;;;;;;;21161901;28;20189;-58
2022/11/07 10:33:34;;;;;;;10.63;6.03;;;;;;;;;;21161479;28;20404;-59
2022/11/07 10:43:40;;;;;;;12.50;5.68;;;;;;;;;;21161353;28;20438;-62
2022/11/07 10:53:43;;;;;;;11.27;6.20;;;;;;;;;;21161127;28;20051;-60
2022/11/07 11:03:48;;;;;;;13.10;6.40;;;;;;;;;;21171445;28;20052;-62
2022/11/07 11:14:00;;;;;;;15.90;6.47;;;;;;;;;;21176369;28;20048;-62
2022/11/07 11:24:11;;;;;;;11.93;6.13;;;;;;;;;;21174979;28;20054;-61
2022/11/07 11:34:16;;;;;;;18.02;7.15;;;;;;;;;;21174629;28;20079;-71
2022/11/07 11:44:20;;;;;;;15.82;7.05;;;;;;;;;;21172504;28;20052;-62
2022/11/07 11:54:22;;;;;;;13.13;7.13;;;;;;;;;;21172083;28;20488;-63
2022/11/07 12:04:36;;;;;;;18.05;9.23;;;;;;;;;;21172055;28;20096;-62
2022/11/07 12:14:41;;;;;;;11.70;6.45;;;;;;;;;;21170233;28;20134;-64
2022/11/07 12:24:43;;;;;;;14.90;6.50;;;;;;;;;;21170689;28;20627;-75
2022/11/07 12:34:53;;;;;;;12.85;7.00;;;;;;;;;;21168053;28;20058;-59
2022/11/07 12:44:59;;;;;;;13.98;6.13;;;;;;;;;;21164940;28;20056;-61
2022/11/07 12:55:22;;;;;;;22.33;6.50;;;;;;;;;;21168182;28;20054;-62
2022/11/07 13:05:41;;;;;;;18.52;6.43;;;;;;;;;;21169016;28;20048;-72
2022/11/07 13:15:43;;;;;;;13.13;6.28;;;;;;;;;;21167940;28;20051;-68
2022/11/07 13:25:45;;;;;;;10.13;7.25;;;;;;;;;;21166686;28;20044;-70
2022/11/07 13:35:53;;;;;;;9.00;5.55;;;;;;;;;;21165280;28;20051;-68
2022/11/07 13:45:56;;;;;;;14.45;7.03;;;;;;;;;;21164075;28;20059;-66
2022/11/07 13:56:21;;;;;;;11.60;4.93;;;;;;;;;;21163499;28;20047;-67
2022/11/07 14:06:22;;;;;;;5.72;3.83;;;;;;;;;;21163289;28;20051;-67
2022/11/07 14:16:25;;;;;;;11.73;4.03;;;;;;;;;;21163575;28;20430;-67
2022/11/07 14:26:32;;;;;;;9.93;4.33;;;;;;;;;;21162576;28;20042;-68
2022/11/07 14:36:34;;;;;;;6.85;3.90;;;;;;;;;;21168033;28;20050;-67
2022/11/07 14:46:36;;;;;;;9.90;4.47;;;;;;;;;;21177706;28;20051;-69
2022/11/07 14:56:41;;;;;;;8.90;3.28;;;;;;;;;;21178311;28;20051;-69
2022/11/07 15:06:44;;;;;;;7.40;3.30;;;;;;;;;;21177368;28;20542;-66
2022/11/07 15:16:49;;;;;;;5.32;3.67;;;;;;;;;;21176475;28;20043;-67
2022/11/07 15:27:06;;;;;;;4.05;1.80;;;;;;;;;;21177714;28;20515;-69
2022/11/07 15:37:08;;;;;;;5.57;2.60;;;;;;;;;;21174726;28;20139;-67
2022/11/07 15:47:18;;;;;;;7.07;2.70;;;;;;;;;;21172614;28;20648;-66
2022/11/07 15:57:20;;;;;;;3.88;2.28;;;;;;;;;;21172612;28;20228;-67
2022/11/07 16:07:21;;;;;;;3.47;1.75;;;;;;;;;;21173317;28;20503;-68
2022/11/07 16:17:23;;;;;;;4.30;2.58;;;;;;;;;;21171760;28;20051;-68
2022/11/07 16:27:25;;;;;;;9.65;6.53;;;;;;;;;;21171933;28;20087;-67
2022/11/07 16:37:27;;;;;;;7.97;4.45;;;;;;;;;;21169828;28;20048;-67
2022/11/07 16:47:31;;;;;;;;;;;;;;;;;;21169638;28;20159;-67
2022/11/07 16:57:34;;;;;;;4.88;2.25;;;;;;;;;;21177774;28;19920;-67
2022/11/07 17:07:37;;;;;;;6.75;3.10;;;;;;;;;;21169098;28;20055;-67
2022/11/07 17:17:39;;;;;;;4.35;2.90;;;;;;;;;;21166512;28;20051;-67
2022/11/07 17:27:42;;;;;;;9.60;3.95;;;;;;;;;;21165435;28;20052;-67
2022/11/07 17:37:44;;;;;;;6.40;4.32;;;;;;;;;;21165979;28;20043;-68
2022/11/07 17:47:46;;;;;;;7.32;4.00;;;;;;;;;;21164390;28;20160;-66
2022/11/07 17:57:48;;;;;;;7.93;3.95;;;16.90;51.30;;;;;;21163459;28;20411;-67
2022/11/07 18:07:51;;;;;;;10.50;4.43;;;16.60;52.40;;;;;;21161882;28;20425;-69
2022/11/07 18:17:53;;;;;;;15.95;7.97;;;16.40;53.00;;;;;;21162794;28;20043;-66
2022/11/07 18:27:54;;;;;;;13.80;8.38;;;16.20;53.80;;;;;;21163177;28;20052;-67
2022/11/07 18:37:55;;;;;;;20.50;9.07;;;16.20;53.70;;;;;;21162320;28;20049;-73
2022/11/07 18:47:57;;;;;;;21.45;9.50;;;16.20;53.80;;;;;;21162347;28;20051;-66
2022/11/07 18:57:58;;;;;;;13.77;8.95;;;16.20;54.00;;;;;;21160992;28;20055;-64
2022/11/07 19:08:00;;;;;;;20.02;13.10;;;16.00;54.90;;;;;;21160535;28;20051;-63
2022/11/07 19:18:01;;;;;;;20.73;10.57;;;15.90;58.40;;;;;;21160617;28;20446;-64
2022/11/07 19:28:03;;;;;;;22.38;11.30;;;16.10;57.80;;;;;;21174354;28;20047;-68
2022/11/07 19:38:06;;;;;;;22.90;12.68;;;16.50;56.30;;;;;;21175292;28;20096;-69
2022/11/07 19:48:08;;;;;;;19.42;10.90;;;16.10;56.50;;;;;;21175899;28;20454;-67
2022/11/07 19:58:09;;;;;;;21.45;12.00;;;15.80;56.90;;;;;;21175128;28;20074;-67
2022/11/07 20:08:11;;;;;;;22.23;13.23;;;15.60;57.40;;;;;;21173496;28;20083;-67
2022/11/07 20:18:12;;;;;;;21.60;11.52;;;15.60;58.00;;;;;;21171392;28;20075;-72
2022/11/07 20:28:14;;;;;;;18.60;8.50;;;15.50;58.50;;;;;;21170991;28;20050;-68
2022/11/07 20:38:16;;;;;;;19.50;10.18;;;15.30;58.70;;;;;;21169975;28;20055;-71
2022/11/07 20:48:18;;;;;;;20.48;11.02;;;15.20;59.00;;;;;;21168894;28;20058;-70
2022/11/07 20:58:20;;;;;;;21.20;9.73;;;15.10;59.60;;;;;;21168870;28;20094;-71
2022/11/07 21:08:21;;;;;;;18.70;10.55;;;15.40;58.80;;;;;;21166794;28;20514;-69
2022/11/07 21:18:23;;;;;;;17.83;11.25;;;14.90;60.20;;;;;;21167192;28;20491;-68
2022/11/07 21:28:25;;;;;;;16.45;8.25;;;14.80;60.90;;;;;;21166090;28;20062;-67
2022/11/07 21:38:27;;;;;;;21.02;9.48;;;14.70;60.80;;;;;;21166239;28;20051;-68
2022/11/07 21:48:28;;;;;;;18.90;10.20;;;14.70;60.90;;;;;;21165445;28;20059;-69
2022/11/07 21:58:30;;;;;;;28.88;12.50;;;14.80;61.60;;;;;;21164376;28;20054;-67
2022/11/07 22:08:32;;;;;;;19.90;11.98;;;14.70;61.70;;;;;;21163551;28;20064;-69
2022/11/07 22:18:34;;;;;;;17.02;9.73;;;14.70;61.60;;;;;;21164281;28;20078;-67
2022/11/07 22:28:36;;;;;;;13.77;7.50;;;14.70;61.60;;;;;;21163868;28;20059;-67
2022/11/07 22:38:39;;;;;;;12.20;8.70;;;14.70;61.60;;;;;;21164487;28;20048;-68
2022/11/07 22:48:40;;;;;;;14.57;6.75;;;14.40;61.80;;;;;;21161606;28;20145;-69
2022/11/07 22:58:43;;;;;;;12.65;6.85;;;14.30;62.10;;;;;;21169910;28;20050;-68
2022/11/07 23:08:45;;;;;;;11.27;6.30;;;14.40;62.30;;;;;;21159927;28;20044;-71
2022/11/07 23:18:47;;;;;;;11.63;5.55;;;14.20;62.60;;;;;;21178055;28;20483;-69
2022/11/07 23:28:49;;;;;;;12.77;6.82;;;14.10;62.80;;;;;;21175751;28;20138;-69
2022/11/07 23:38:50;;;;;;;14.25;6.50;;;13.90;63.40;;;;;;21175203;28;20051;-67
